createdAt,value
2018-07-30T00:00:03.424Z,98.50
2018-07-30T00:02:37.574Z,98.60
2018-07-30T00:05:08.104Z,98.70
2018-07-30T00:07:37.058Z,99.20
2018-07-30T00:10:06.435Z,99.00
2018-07-30T00:12:36.107Z,99.10
2018-07-30T00:15:05.554Z,98.80
2018-07-30T00:17:35.636Z,98.80
2018-07-30T00:20:04.879Z,99.00
2018-07-30T00:22:33.835Z,99.00
2018-07-30T00:25:02.787Z,98.90
2018-07-30T00:27:31.779Z,99.10
2018-07-30T00:30:00.732Z,99.00
2018-07-30T00:32:29.715Z,99.30
2018-07-30T00:34:58.658Z,99.20
2018-07-30T00:37:27.594Z,99.40
2018-07-30T00:39:56.611Z,99.60
2018-07-30T00:42:25.575Z,99.40
2018-07-30T00:44:54.567Z,99.70
2018-07-30T00:47:23.614Z,99.90
2018-07-30T00:49:53.559Z,99.90
2018-07-30T00:52:22.538Z,99.90
2018-07-30T00:54:51.591Z,99.90
2018-07-30T00:57:20.545Z,99.90
2018-07-30T00:59:49.555Z,99.90
2018-07-30T01:02:18.502Z,99.90
2018-07-30T01:04:47.552Z,99.90
2018-07-30T01:07:16.775Z,99.90
2018-07-30T01:09:45.758Z,99.90
2018-07-30T01:12:14.779Z,99.90
2018-07-30T01:14:43.767Z,99.90
2018-07-30T01:17:12.705Z,99.90
2018-07-30T01:19:41.692Z,99.90
2018-07-30T01:22:10.695Z,99.90
2018-07-30T01:24:39.646Z,99.90
2018-07-30T01:27:08.917Z,99.90
2018-07-30T01:29:37.911Z,99.90
2018-07-30T01:32:07.136Z,99.90
2018-07-30T01:34:36.048Z,99.90
2018-07-30T01:37:05.187Z,99.90
2018-07-30T01:39:34.159Z,99.90
2018-07-30T01:42:03.223Z,99.90
2018-07-30T01:44:32.178Z,99.90
2018-07-30T01:47:01.155Z,99.90
2018-07-30T01:49:30.163Z,99.90
2018-07-30T01:51:59.131Z,99.90
2018-07-30T01:54:28.339Z,99.90
2018-07-30T01:56:57.314Z,99.90
2018-07-30T01:59:26.277Z,99.90
2018-07-30T02:01:55.240Z,99.90
2018-07-30T02:04:24.228Z,99.90
2018-07-30T02:06:53.205Z,99.90
2018-07-30T02:09:22.159Z,99.90
2018-07-30T02:11:51.232Z,99.90
2018-07-30T02:14:20.164Z,99.90
2018-07-30T02:16:49.179Z,99.90
2018-07-30T02:19:18.133Z,99.90
2018-07-30T02:21:47.458Z,99.90
2018-07-30T02:24:16.450Z,99.90
2018-07-30T02:26:45.418Z,99.90
2018-07-30T02:29:14.408Z,99.90
2018-07-30T02:31:43.338Z,99.90
2018-07-30T02:34:12.593Z,99.90
2018-07-30T02:36:41.575Z,99.90
2018-07-30T02:39:13.120Z,99.90
2018-07-30T02:41:42.741Z,99.90
2018-07-30T02:44:11.735Z,99.90
2018-07-30T02:46:40.779Z,99.90
2018-07-30T02:51:39.167Z,99.90
2018-07-30T02:54:08.371Z,99.90
2018-07-30T02:56:37.431Z,99.90
2018-07-30T02:59:06.580Z,99.90
2018-07-30T03:01:35.530Z,99.90
2018-07-30T03:04:04.502Z,99.90
2018-07-30T03:06:33.479Z,99.90
2018-07-30T03:09:02.530Z,99.90
2018-07-30T03:11:31.503Z,99.90
2018-07-30T03:14:00.486Z,99.90
2018-07-30T03:16:29.447Z,99.90
2018-07-30T03:18:58.414Z,99.90
2018-07-30T03:21:27.394Z,99.90
2018-07-30T03:23:56.369Z,99.90
2018-07-30T03:26:25.331Z,99.90
2018-07-30T03:28:54.347Z,99.90
2018-07-30T03:31:23.357Z,99.90
2018-07-30T03:33:52.321Z,99.90
2018-07-30T03:36:21.272Z,99.90
2018-07-30T03:38:50.251Z,99.90
2018-07-30T03:43:47.870Z,99.90
2018-07-30T03:46:16.864Z,99.90
2018-07-30T03:48:45.794Z,99.90
2018-07-30T03:51:14.782Z,99.90
2018-07-30T03:53:44.008Z,99.90
2018-07-30T03:56:12.931Z,99.90
2018-07-30T03:58:41.942Z,99.90
2018-07-30T04:01:11.030Z,99.90
2018-07-30T04:03:40.011Z,99.90
2018-07-30T04:06:09.043Z,99.90
2018-07-30T04:08:37.939Z,99.90
2018-07-30T04:11:06.948Z,99.90
2018-07-30T04:13:35.955Z,99.90
2018-07-30T04:16:05.195Z,99.90
2018-07-30T04:18:34.168Z,99.90
2018-07-30T04:21:03.143Z,99.90
2018-07-30T04:23:33.398Z,99.90
2018-07-30T04:26:02.380Z,99.90
2018-07-30T04:28:31.344Z,99.90
2018-07-30T04:31:00.336Z,99.90
2018-07-30T04:33:29.320Z,99.90
2018-07-30T04:35:59.391Z,99.90
2018-07-30T04:38:28.350Z,99.90
2018-07-30T04:40:57.480Z,99.90
2018-07-30T04:43:26.463Z,99.90
2018-07-30T04:45:55.513Z,99.90
2018-07-30T04:48:24.594Z,99.90
2018-07-30T04:50:53.619Z,99.90
2018-07-30T04:53:22.650Z,99.90
2018-07-30T04:55:51.611Z,99.90
2018-07-30T04:58:20.695Z,99.90
2018-07-30T05:00:49.690Z,99.90
2018-07-30T05:03:18.650Z,99.90
2018-07-30T05:05:47.902Z,99.90
2018-07-30T05:08:16.890Z,99.90
2018-07-30T05:10:45.845Z,99.90
2018-07-30T05:13:14.832Z,99.90
2018-07-30T05:15:43.820Z,99.90
2018-07-30T05:18:13.030Z,99.90
2018-07-30T05:20:42.036Z,99.90
2018-07-30T05:23:11.135Z,99.90
2018-07-30T05:25:40.312Z,99.90
2018-07-30T05:28:09.215Z,99.90
2018-07-30T05:30:38.227Z,99.90
2018-07-30T05:33:07.333Z,99.90
2018-07-30T05:35:36.305Z,99.90
2018-07-30T05:38:05.322Z,99.90
2018-07-30T05:40:34.350Z,99.90
2018-07-30T05:43:03.847Z,99.90
2018-07-30T05:45:33.090Z,99.90
2018-07-30T05:48:02.071Z,99.90
2018-07-30T05:50:31.085Z,99.90
2018-07-30T05:53:00.072Z,99.90
2018-07-30T05:55:29.010Z,99.90
2018-07-30T05:57:58.017Z,99.90
2018-07-30T06:00:26.980Z,99.90
2018-07-30T06:02:55.959Z,99.90
2018-07-30T06:05:25.040Z,99.90
2018-07-30T06:10:22.615Z,99.90
2018-07-30T06:12:51.608Z,99.90
2018-07-30T06:15:20.606Z,99.90
2018-07-30T06:17:49.651Z,99.90
2018-07-30T06:20:18.608Z,99.90
2018-07-30T06:22:47.574Z,99.90
2018-07-30T06:25:16.551Z,99.90
2018-07-30T06:27:45.555Z,99.90
2018-07-30T06:30:14.485Z,99.90
2018-07-30T06:32:43.537Z,99.90
2018-07-30T06:35:12.491Z,99.90
2018-07-30T06:37:41.496Z,99.90
2018-07-30T06:40:10.459Z,99.90
2018-07-30T06:42:39.415Z,99.90
2018-07-30T06:45:08.363Z,99.90
2018-07-30T06:47:37.311Z,99.90
2018-07-30T06:52:34.984Z,99.90
2018-07-30T06:55:04.211Z,99.90
2018-07-30T06:57:33.407Z,99.90
2018-07-30T07:00:02.396Z,99.90
2018-07-30T07:02:31.507Z,99.90
2018-07-30T07:05:00.442Z,99.90
2018-07-30T07:07:29.414Z,99.90
2018-07-30T07:09:58.368Z,99.90
2018-07-30T07:12:27.413Z,99.90
2018-07-30T07:14:56.359Z,99.90
2018-07-30T07:17:25.321Z,99.90
2018-07-30T07:19:54.295Z,99.90
2018-07-30T07:22:23.262Z,99.90
2018-07-30T07:24:52.245Z,99.90
2018-07-30T07:27:21.302Z,99.90
2018-07-30T07:29:50.239Z,99.90
2018-07-30T07:32:19.236Z,99.90
2018-07-30T07:34:48.249Z,99.90
2018-07-30T07:37:17.186Z,99.90
2018-07-30T07:39:46.159Z,99.90
2018-07-30T07:42:15.099Z,99.90
2018-07-30T07:44:44.081Z,99.90
2018-07-30T07:47:13.124Z,99.90
2018-07-30T07:49:42.139Z,99.90
2018-07-30T07:52:11.159Z,99.80
2018-07-30T07:54:40.106Z,98.30
2018-07-30T07:57:09.119Z,98.40
2018-07-30T08:02:06.674Z,98.40
2018-07-30T08:04:35.891Z,98.40
2018-07-30T08:09:33.776Z,98.40
2018-07-30T08:12:02.704Z,98.10
2018-07-30T08:14:31.755Z,97.90
2018-07-30T08:17:00.683Z,96.00
2018-07-30T08:19:29.663Z,95.80
2018-07-30T08:21:58.639Z,95.90
2018-07-30T08:24:27.720Z,95.90
2018-07-30T08:26:56.687Z,95.20
2018-07-30T08:29:25.661Z,93.50
2018-07-30T08:34:23.285Z,94.70
2018-07-30T08:36:52.208Z,95.10
2018-07-30T08:39:21.179Z,95.10
2018-07-30T08:41:50.129Z,96.00
2018-07-30T08:44:19.059Z,96.40
2018-07-30T08:46:48.028Z,95.90
2018-07-30T08:49:16.976Z,96.30
2018-07-30T08:51:45.958Z,95.10
2018-07-30T08:54:14.935Z,96.30
2018-07-30T08:56:43.940Z,95.20
2018-07-30T08:59:12.877Z,94.70
2018-07-30T09:01:41.811Z,94.60
2018-07-30T09:04:10.779Z,95.00
2018-07-30T09:06:39.779Z,94.50
2018-07-30T09:09:09.609Z,94.80
2018-07-30T09:11:38.943Z,93.80
2018-07-30T09:14:08.509Z,93.10
2018-07-30T09:16:37.542Z,93.20
2018-07-30T09:19:06.703Z,93.20
2018-07-30T09:21:35.671Z,92.70
2018-07-30T09:24:04.660Z,92.80
2018-07-30T09:26:33.611Z,92.60
2018-07-30T09:29:02.616Z,92.10
2018-07-30T09:31:31.608Z,92.20
2018-07-30T09:34:00.659Z,91.60
2018-07-30T09:36:29.600Z,91.50
2018-07-30T09:38:58.760Z,91.00
2018-07-30T09:41:27.718Z,90.60
2018-07-30T09:43:56.638Z,90.20
2018-07-30T09:46:25.645Z,91.40
2018-07-30T09:48:54.599Z,91.40
2018-07-30T09:51:23.524Z,92.00
2018-07-30T09:53:52.535Z,91.50
2018-07-30T09:56:21.559Z,91.30
2018-07-30T09:58:50.631Z,90.70
2018-07-30T10:01:25.059Z,91.20
2018-07-30T10:03:53.993Z,91.10
2018-07-30T10:06:22.937Z,90.20
2018-07-30T10:08:51.871Z,89.60
2018-07-30T10:11:20.814Z,90.10
2018-07-30T10:13:49.862Z,88.80
2018-07-30T10:16:18.799Z,89.00
2018-07-30T10:18:47.765Z,88.70
2018-07-30T10:21:16.739Z,88.20
2018-07-30T10:23:45.713Z,86.80
2018-07-30T10:26:14.646Z,86.40
2018-07-30T10:28:44.587Z,86.60
2018-07-30T10:31:13.544Z,86.10
2018-07-30T10:33:42.504Z,86.20
2018-07-30T10:36:11.426Z,84.80
2018-07-30T10:38:40.397Z,83.80
2018-07-30T10:41:09.323Z,83.70
2018-07-30T10:43:38.270Z,85.40
2018-07-30T10:46:07.310Z,82.30
2018-07-30T10:51:04.908Z,81.70
2018-07-30T10:53:33.875Z,82.40
2018-07-30T10:56:02.863Z,81.60
2018-07-30T10:58:31.814Z,81.10
2018-07-30T11:01:00.819Z,82.10
2018-07-30T11:03:29.746Z,80.40
2018-07-30T11:05:58.699Z,79.10
2018-07-30T11:08:27.687Z,78.40
2018-07-30T11:10:56.683Z,77.60
2018-07-30T11:13:25.675Z,76.90
2018-07-30T11:15:54.643Z,78.60
2018-07-30T11:18:23.623Z,76.70
2018-07-30T11:20:52.592Z,76.20
2018-07-30T11:23:21.596Z,77.20
2018-07-30T11:25:50.603Z,75.50
2018-07-30T11:28:19.671Z,75.40
2018-07-30T11:30:48.714Z,73.30
2018-07-30T11:33:17.685Z,74.20
2018-07-30T11:35:46.695Z,74.20
2018-07-30T11:38:15.698Z,73.90
2018-07-30T11:40:44.714Z,73.30
2018-07-30T11:43:13.710Z,73.70
2018-07-30T11:45:42.682Z,72.10
2018-07-30T11:48:11.779Z,70.90
2018-07-30T11:50:40.762Z,71.50
2018-07-30T11:53:09.746Z,71.40
2018-07-30T11:55:38.726Z,71.00
2018-07-30T11:58:07.702Z,70.60
2018-07-30T12:00:36.824Z,69.70
2018-07-30T12:03:05.793Z,70.00
2018-07-30T12:08:03.495Z,69.20
2018-07-30T12:10:32.529Z,66.90
2018-07-30T12:13:01.529Z,68.20
2018-07-30T12:15:30.516Z,66.50
2018-07-30T12:17:59.562Z,66.60
2018-07-30T12:20:28.504Z,67.10
2018-07-30T12:22:57.627Z,66.60
2018-07-30T12:25:26.591Z,67.50
2018-07-30T12:27:55.565Z,64.60
2018-07-30T12:30:24.634Z,63.90
2018-07-30T12:32:53.532Z,64.10
2018-07-30T12:35:22.467Z,65.20
2018-07-30T12:37:51.447Z,67.00
2018-07-30T12:40:20.403Z,66.90
2018-07-30T12:42:49.389Z,63.80
2018-07-30T12:45:23.923Z,61.30
2018-07-30T12:47:52.893Z,61.30
2018-07-30T12:50:21.864Z,61.10
2018-07-30T12:52:50.831Z,61.30
2018-07-30T12:55:19.795Z,61.20
2018-07-30T12:57:48.784Z,60.70
2018-07-30T13:00:17.738Z,61.10
2018-07-30T13:02:46.956Z,61.90
2018-07-30T13:05:15.911Z,60.10
2018-07-30T13:07:44.875Z,60.80
2018-07-30T13:10:13.958Z,60.00
2018-07-30T13:12:43.013Z,60.00
2018-07-30T13:15:11.996Z,60.20
2018-07-30T13:17:40.970Z,59.00
2018-07-30T13:20:09.970Z,58.90
2018-07-30T13:22:38.939Z,58.60
2018-07-30T13:25:08.036Z,59.00
2018-07-30T13:27:37.291Z,58.20
2018-07-30T13:30:07.351Z,58.10
2018-07-30T13:35:05.492Z,57.70
2018-07-30T13:37:34.475Z,57.80
2018-07-30T13:40:03.602Z,57.10
2018-07-30T13:42:32.602Z,56.40
2018-07-30T13:45:01.759Z,57.00
2018-07-30T13:47:30.715Z,56.40
2018-07-30T13:49:59.771Z,56.90
2018-07-30T13:52:28.759Z,56.00
2018-07-30T13:54:57.768Z,55.70
2018-07-30T13:57:26.761Z,54.80
2018-07-30T13:59:55.791Z,55.20
2018-07-30T14:02:24.735Z,55.10
2018-07-30T14:04:53.734Z,54.10
2018-07-30T14:07:22.700Z,53.40
2018-07-30T14:09:51.651Z,53.30
2018-07-30T14:12:20.603Z,53.10
2018-07-30T14:14:49.578Z,53.10
2018-07-30T14:17:18.556Z,52.70
2018-07-30T14:19:47.551Z,52.90
2018-07-30T14:22:16.756Z,52.70
2018-07-30T14:24:45.809Z,51.50
2018-07-30T14:27:14.782Z,50.80
2018-07-30T14:29:43.766Z,51.00
2018-07-30T14:32:12.728Z,51.00
2018-07-30T14:34:42.027Z,50.50
2018-07-30T14:37:11.007Z,50.40
2018-07-30T14:39:40.264Z,51.10
2018-07-30T14:42:09.224Z,49.60
2018-07-30T14:44:38.278Z,49.50
2018-07-30T14:47:07.281Z,49.20
2018-07-30T14:49:36.244Z,49.20
2018-07-30T14:52:05.195Z,49.30
2018-07-30T14:57:03.130Z,49.30
2018-07-30T14:59:32.105Z,48.70
2018-07-30T15:02:01.046Z,47.50
2018-07-30T15:04:30.028Z,49.00
2018-07-30T15:06:58.982Z,47.50
2018-07-30T15:09:27.945Z,47.50
2018-07-30T15:11:56.898Z,46.80
2018-07-30T15:14:25.868Z,45.90
2018-07-30T15:16:54.858Z,46.00
2018-07-30T15:19:23.811Z,45.90
2018-07-30T15:21:52.783Z,45.10
2018-07-30T15:24:21.792Z,45.70
2018-07-30T15:26:50.747Z,45.00
2018-07-30T15:29:19.706Z,44.50
2018-07-30T15:31:48.685Z,44.50
2018-07-30T15:34:17.659Z,44.20
2018-07-30T15:39:15.351Z,43.90
2018-07-30T15:41:44.360Z,43.00
2018-07-30T15:44:13.317Z,43.60
2018-07-30T15:46:42.290Z,43.50
2018-07-30T15:49:11.251Z,42.70
2018-07-30T15:51:40.211Z,41.30
2018-07-30T15:54:09.179Z,41.10
2018-07-30T16:01:35.510Z,37.20
2018-07-30T16:06:33.083Z,34.50
2018-07-30T16:09:02.041Z,34.60
2018-07-30T16:11:31.034Z,34.10
2018-07-30T16:14:00.051Z,33.40
2018-07-30T16:16:29.026Z,31.60
2018-07-30T16:18:58.012Z,31.20
2018-07-30T16:23:55.609Z,29.30
2018-07-30T16:26:24.607Z,29.70
2018-07-30T16:28:53.568Z,28.90
2018-07-30T16:31:22.513Z,28.50
2018-07-30T16:33:51.666Z,28.20
2018-07-30T16:36:20.670Z,28.80
2018-07-30T16:38:49.755Z,27.20
2018-07-30T16:41:18.698Z,27.80
2018-07-30T16:43:48.067Z,27.40
2018-07-30T16:46:17.127Z,27.10
2018-07-30T16:48:46.160Z,27.20
2018-07-30T16:51:15.174Z,26.90
2018-07-30T16:53:44.164Z,26.30
2018-07-30T16:56:13.342Z,26.60
2018-07-30T16:58:42.373Z,26.30
2018-07-30T17:01:11.333Z,25.50
2018-07-30T17:03:40.395Z,25.90
2018-07-30T17:06:09.367Z,25.90
2018-07-30T17:08:38.374Z,25.60
2018-07-30T17:11:07.935Z,25.80
2018-07-30T17:13:36.944Z,25.50
2018-07-30T17:16:06.126Z,25.10
2018-07-30T17:18:35.184Z,25.80
2018-07-30T17:21:04.131Z,26.40
2018-07-30T17:23:33.154Z,25.60
2018-07-30T17:26:02.144Z,25.90
2018-07-30T17:31:00.032Z,26.50
2018-07-30T17:33:28.964Z,26.30
2018-07-30T17:35:57.926Z,26.60
2018-07-30T17:38:26.900Z,26.70
2018-07-30T17:40:56.069Z,27.30
2018-07-30T17:43:24.987Z,27.30
2018-07-30T17:45:53.971Z,27.70
2018-07-30T17:48:22.926Z,27.80
2018-07-30T17:50:52.048Z,29.20
2018-07-30T17:53:21.451Z,29.50
2018-07-30T17:55:50.479Z,29.40
2018-07-30T17:58:19.458Z,30.30
2018-07-30T18:00:49.354Z,31.60
2018-07-30T18:03:18.496Z,32.10
2018-07-30T18:05:47.595Z,32.40
2018-07-30T18:08:16.566Z,33.30
2018-07-30T18:13:14.188Z,34.50
2018-07-30T18:15:43.181Z,35.10
2018-07-30T18:18:12.327Z,35.20
2018-07-30T18:20:41.295Z,35.50
2018-07-30T18:23:10.555Z,36.40
2018-07-30T18:25:39.555Z,36.60
2018-07-30T18:28:08.514Z,37.30
2018-07-30T18:30:37.495Z,38.30
2018-07-30T18:33:13.228Z,38.90
2018-07-30T18:35:42.174Z,39.70
2018-07-30T18:38:11.175Z,41.50
2018-07-30T18:40:40.184Z,41.10
2018-07-30T18:43:09.146Z,40.80
2018-07-30T18:45:38.079Z,41.30
2018-07-30T18:48:07.139Z,41.50
2018-07-30T18:50:36.091Z,41.00
2018-07-30T18:53:05.076Z,41.60
2018-07-30T18:55:34.142Z,41.70
2018-07-30T18:58:03.088Z,42.40
2018-07-30T19:00:32.084Z,43.30
2018-07-30T19:03:01.354Z,43.90
2018-07-30T19:05:31.594Z,43.90
2018-07-30T19:08:00.648Z,44.70
2018-07-30T19:10:30.663Z,45.70
2018-07-30T19:15:28.344Z,47.10
2018-07-30T19:17:57.510Z,47.20
2018-07-30T19:20:26.852Z,47.60
2018-07-30T19:22:55.859Z,48.20
2018-07-30T19:25:24.860Z,47.80
2018-07-30T19:27:53.907Z,48.20
2018-07-30T19:30:22.858Z,48.60
2018-07-30T19:32:52.495Z,49.30
2018-07-30T19:35:21.427Z,48.90
2018-07-30T19:37:50.831Z,50.00
2018-07-30T19:42:48.477Z,51.10
2018-07-30T19:45:17.425Z,50.50
2018-07-30T19:47:46.495Z,51.60
2018-07-30T19:50:15.523Z,52.60
2018-07-30T19:52:44.502Z,50.80
2018-07-30T19:55:14.890Z,51.30
2018-07-30T19:57:44.452Z,51.80
2018-07-30T20:00:13.237Z,51.90
2018-07-30T20:02:43.161Z,52.00
2018-07-30T20:05:12.155Z,53.00
2018-07-30T20:07:41.723Z,52.00
2018-07-30T20:10:10.688Z,52.50
2018-07-30T20:12:40.200Z,54.30
2018-07-30T20:15:09.175Z,55.80
2018-07-30T20:17:38.191Z,54.00
2018-07-30T20:20:10.691Z,55.60
2018-07-30T20:22:41.219Z,54.80
2018-07-30T20:25:10.454Z,55.50
2018-07-30T20:27:39.463Z,55.90
2018-07-30T20:30:08.859Z,56.00
2018-07-30T20:32:37.850Z,56.00
2018-07-30T20:35:06.961Z,56.30
2018-07-30T20:37:35.990Z,57.80
2018-07-30T20:40:05.382Z,58.00
2018-07-30T20:42:34.363Z,57.90
2018-07-30T20:45:03.413Z,58.20
2018-07-30T20:47:32.312Z,58.80
2018-07-30T20:50:02.288Z,59.80
2018-07-30T20:52:32.515Z,59.90
2018-07-30T20:55:01.516Z,60.70
2018-07-30T20:57:30.476Z,61.60
2018-07-30T20:59:59.593Z,61.90
2018-07-30T21:02:28.545Z,63.00
2018-07-30T21:04:57.529Z,63.00
2018-07-30T21:07:26.495Z,65.50
2018-07-30T21:09:55.452Z,66.00
2018-07-30T21:12:25.983Z,69.20
2018-07-30T21:14:55.063Z,68.50
2018-07-30T21:17:24.692Z,80.50
2018-07-30T21:19:53.662Z,70.00
2018-07-30T21:22:22.664Z,70.80
2018-07-30T21:24:51.718Z,71.60
2018-07-30T21:27:21.728Z,72.00
2018-07-30T21:32:19.359Z,72.90
2018-07-30T21:34:48.308Z,75.20
2018-07-30T21:37:17.694Z,75.80
2018-07-30T21:39:46.659Z,76.70
2018-07-30T21:42:15.615Z,76.80
2018-07-30T21:44:44.727Z,76.70
2018-07-30T21:47:14.319Z,78.30
2018-07-30T21:49:43.412Z,78.90
2018-07-30T21:52:12.394Z,78.60
2018-07-30T21:54:41.335Z,79.60
2018-07-30T21:57:10.247Z,80.60
2018-07-30T21:59:39.710Z,81.60
2018-07-30T22:02:09.018Z,85.40
2018-07-30T22:04:37.707Z,84.30
2018-07-30T22:07:06.675Z,85.60
2018-07-30T22:09:35.667Z,86.40
2018-07-30T22:12:04.786Z,88.00
2018-07-30T22:14:33.711Z,90.30
2018-07-30T22:17:02.684Z,90.70
2018-07-30T22:19:31.668Z,92.10
2018-07-30T22:22:00.610Z,91.20
2018-07-30T22:24:29.707Z,92.00
2018-07-30T22:26:58.997Z,92.80
2018-07-30T22:29:27.951Z,93.60
2018-07-30T22:31:56.920Z,93.30
2018-07-30T22:34:25.858Z,94.30
2018-07-30T22:36:54.807Z,95.10
2018-07-30T22:39:23.804Z,94.80
2018-07-30T22:41:52.775Z,95.60
2018-07-30T22:44:21.744Z,96.30
2018-07-30T22:46:50.752Z,96.90
2018-07-30T22:49:19.709Z,95.80
2018-07-30T22:51:48.667Z,95.70
2018-07-30T22:54:17.690Z,96.20
2018-07-30T22:56:48.151Z,96.00
2018-07-30T22:59:17.178Z,96.10
2018-07-30T23:01:46.159Z,96.10
2018-07-30T23:04:15.102Z,95.60
2018-07-30T23:06:44.059Z,95.30
2018-07-30T23:09:13.011Z,95.50
2018-07-30T23:11:42.027Z,95.10
2018-07-30T23:14:10.983Z,95.20
2018-07-30T23:16:39.967Z,95.00
2018-07-30T23:19:09.067Z,94.30
2018-07-30T23:21:38.075Z,93.80
2018-07-30T23:24:07.262Z,93.60
2018-07-30T23:26:36.255Z,93.90
2018-07-30T23:29:05.235Z,93.20
2018-07-30T23:31:34.214Z,93.60
2018-07-30T23:34:03.178Z,93.30
2018-07-30T23:36:32.159Z,93.20
2018-07-30T23:39:01.121Z,93.30
2018-07-30T23:41:30.052Z,93.00
2018-07-30T23:43:59.039Z,92.80
2018-07-30T23:46:28.003Z,92.80
2018-07-30T23:48:56.993Z,92.40
2018-07-30T23:51:25.947Z,92.70
2018-07-30T23:53:54.914Z,92.60
2018-07-30T23:56:23.919Z,92.80
2018-07-30T23:58:52.889Z,92.40
